sensor_id;sensor_type;location;lat;lon;timestamp;pressure;altitude;pressure_sealevel;temperature;humidity
73063;BME280;61230;46.328;19.972;2023-12-04T00:00:06;101599.25;;;-2.82;100.00
73063;BME280;61230;46.328;19.972;2023-12-04T00:02:38;101588.56;;;-3.08;100.00
73063;BME280;61230;46.328;19.972;2023-12-04T00:05:06;101584.16;;;-3.02;100.00
73063;BME280;61230;46.328;19.972;2023-12-04T00:07:35;101590.81;;;-2.92;100.00
73063;BME280;61230;46.328;19.972;2023-12-04T00:10:02;101588.19;;;-2.88;100.00
73063;BME280;61230;46.328;19.972;2023-12-04T00:12:30;101599.66;;;-3.06;100.00
73063;BME280;61230;46.328;19.972;2023-12-04T00:14:58;101584.19;;;-3.05;100.00
73063;BME280;61230;46.328;19.972;2023-12-04T00:17:25;101577.78;;;-3.30;100.00
73063;BME280;61230;46.328;19.972;2023-12-04T00:19:53;101576.13;;;-3.34;100.00
73063;BME280;61230;46.328;19.972;2023-12-04T00:22:21;101571.91;;;-3.38;100.00
73063;BME280;61230;46.328;19.972;2023-12-04T00:24:49;101576.97;;;-3.33;100.00
73063;BME280;61230;46.328;19.972;2023-12-04T00:27:17;101575.16;;;-3.28;100.00
73063;BME280;61230;46.328;19.972;2023-12-04T00:29:44;101582.91;;;-3.30;100.00
73063;BME280;61230;46.328;19.972;2023-12-04T00:32:12;101585.53;;;-3.33;100.00
73063;BME280;61230;46.328;19.972;2023-12-04T00:34:40;101599.28;;;-3.34;100.00
73063;BME280;61230;46.328;19.972;2023-12-04T00:37:07;101588.16;;;-3.37;100.00
73063;BME280;61230;46.328;19.972;2023-12-04T00:39:35;101598.50;;;-3.39;100.00
73063;BME280;61230;46.328;19.972;2023-12-04T00:42:03;101596.75;;;-3.37;100.00
73063;BME280;61230;46.328;19.972;2023-12-04T00:44:31;101588.97;;;-3.34;100.00
73063;BME280;61230;46.328;19.972;2023-12-04T00:46:58;101593.97;;;-3.25;100.00
73063;BME280;61230;46.328;19.972;2023-12-04T00:49:26;101593.06;;;-3.22;100.00
73063;BME280;61230;46.328;19.972;2023-12-04T00:51:54;101604.22;;;-3.22;100.00
73063;BME280;61230;46.328;19.972;2023-12-04T00:54:21;101603.37;;;-3.21;100.00
73063;BME280;61230;46.328;19.972;2023-12-04T00:56:49;101595.69;;;-3.24;100.00
73063;BME280;61230;46.328;19.972;2023-12-04T00:59:17;101599.13;;;-3.26;100.00
73063;BME280;61230;46.328;19.972;2023-12-04T01:01:45;101589.66;;;-3.21;100.00
73063;BME280;61230;46.328;19.972;2023-12-04T01:04:13;101565.16;;;-3.45;100.00
73063;BME280;61230;46.328;19.972;2023-12-04T01:06:40;101592.34;;;-3.30;100.00
73063;BME280;61230;46.328;19.972;2023-12-04T01:09:08;101590.50;;;-3.22;100.00
73063;BME280;61230;46.328;19.972;2023-12-04T01:11:36;101587.19;;;-3.29;100.00
73063;BME280;61230;46.328;19.972;2023-12-04T01:14:04;101579.47;;;-3.29;100.00
73063;BME280;61230;46.328;19.972;2023-12-04T01:16:31;101598.31;;;-3.27;100.00
73063;BME280;61230;46.328;19.972;2023-12-04T01:19:00;101595.03;;;-3.36;100.00
73063;BME280;61230;46.328;19.972;2023-12-04T01:21:27;101590.72;;;-3.36;100.00
73063;BME280;61230;46.328;19.972;2023-12-04T01:23:55;101598.41;;;-3.34;100.00
73063;BME280;61230;46.328;19.972;2023-12-04T01:26:23;101595.87;;;-3.36;100.00
73063;BME280;61230;46.328;19.972;2023-12-04T01:28:51;101594.16;;;-3.37;100.00
73063;BME280;61230;46.328;19.972;2023-12-04T01:31:18;101599.28;;;-3.34;100.00
73063;BME280;61230;46.328;19.972;2023-12-04T01:33:46;101610.47;;;-3.35;100.00
73063;BME280;61230;46.328;19.972;2023-12-04T01:36:14;101603.59;;;-3.37;100.00
73063;BME280;61230;46.328;19.972;2023-12-04T01:38:41;101608.75;;;-3.36;100.00
73063;BME280;61230;46.328;19.972;2023-12-04T01:41:09;101612.09;;;-3.31;100.00
73063;BME280;61230;46.328;19.972;2023-12-04T01:43:37;101556.84;;;-3.62;100.00
73063;BME280;61230;46.328;19.972;2023-12-04T01:46:05;101600.16;;;-3.36;100.00
73063;BME280;61230;46.328;19.972;2023-12-04T01:48:34;101600.09;;;-3.30;100.00
73063;BME280;61230;46.328;19.972;2023-12-04T01:51:05;101606.22;;;-3.39;100.00
73063;BME280;61230;46.328;19.972;2023-12-04T01:53:35;101597.69;;;-3.41;100.00
73063;BME280;61230;46.328;19.972;2023-12-04T01:56:05;101600.34;;;-3.47;100.00
73063;BME280;61230;46.328;19.972;2023-12-04T01:58:34;101590.09;;;-3.52;100.00
73063;BME280;61230;46.328;19.972;2023-12-04T02:01:02;101593.59;;;-3.54;100.00
73063;BME280;61230;46.328;19.972;2023-12-04T02:03:30;101599.66;;;-3.58;100.00
73063;BME280;61230;46.328;19.972;2023-12-04T02:06:01;101594.56;;;-3.61;100.00
73063;BME280;61230;46.328;19.972;2023-12-04T02:08:31;101610.03;;;-3.66;100.00
73063;BME280;61230;46.328;19.972;2023-12-04T02:10:59;101613.47;;;-3.65;100.00
73063;BME280;61230;46.328;19.972;2023-12-04T02:13:27;101602.25;;;-3.60;100.00
73063;BME280;61230;46.328;19.972;2023-12-04T02:15:56;101598.00;;;-3.62;100.00
73063;BME280;61230;46.328;19.972;2023-12-04T02:18:25;101601.34;;;-3.57;100.00
73063;BME280;61230;46.328;19.972;2023-12-04T02:20:54;101608.16;;;-3.55;100.00
73063;BME280;61230;46.328;19.972;2023-12-04T02:23:21;101604.84;;;-3.61;100.00
73063;BME280;61230;46.328;19.972;2023-12-04T02:25:49;101607.47;;;-3.66;100.00
73063;BME280;61230;46.328;19.972;2023-12-04T02:28:19;101611.78;;;-3.66;100.00
73063;BME280;61230;46.328;19.972;2023-12-04T02:30:48;101607.47;;;-3.66;100.00
73063;BME280;61230;46.328;19.972;2023-12-04T02:33:18;101604.84;;;-3.61;100.00
73063;BME280;61230;46.328;19.972;2023-12-04T02:35:51;101607.38;;;-3.58;100.00
73063;BME280;61230;46.328;19.972;2023-12-04T02:38:20;101621.19;;;-3.65;100.00
73063;BME280;61230;46.328;19.972;2023-12-04T02:40:48;101616.84;;;-3.63;100.00
73063;BME280;61230;46.328;19.972;2023-12-04T02:43:16;101611.84;;;-3.69;100.00
73063;BME280;61230;46.328;19.972;2023-12-04T02:45:44;101613.75;;;-3.83;100.00
73063;BME280;61230;46.328;19.972;2023-12-04T02:48:11;101611.25;;;-3.89;100.00
73063;BME280;61230;46.328;19.972;2023-12-04T02:50:40;101611.22;;;-3.88;100.00
73063;BME280;61230;46.328;19.972;2023-12-04T02:53:07;101617.38;;;-3.99;100.00
73063;BME280;61230;46.328;19.972;2023-12-04T02:55:35;101623.22;;;-3.88;100.00
73063;BME280;61230;46.328;19.972;2023-12-04T02:58:03;101620.66;;;-3.88;100.00
73063;BME280;61230;46.328;19.972;2023-12-04T03:00:30;101618.94;;;-3.86;100.00
73063;BME280;61230;46.328;19.972;2023-12-04T03:02:59;101618.94;;;-3.86;100.00
73063;BME280;61230;46.328;19.972;2023-12-04T03:05:27;101623.16;;;-3.84;100.00
73063;BME280;61230;46.328;19.972;2023-12-04T03:07:54;101632.59;;;-3.86;100.00
73063;BME280;61230;46.328;19.972;2023-12-04T03:10:22;101644.59;;;-3.85;100.00
73063;BME280;61230;46.328;19.972;2023-12-04T03:12:50;101591.03;;;-4.15;100.00
73063;BME280;61230;46.328;19.972;2023-12-04T03:15:17;101642.88;;;-3.86;100.00
73063;BME280;61230;46.328;19.972;2023-12-04T03:17:45;101637.75;;;-3.84;100.00
73063;BME280;61230;46.328;19.972;2023-12-04T03:20:13;101627.56;;;-3.93;100.00
73063;BME280;61230;46.328;19.972;2023-12-04T03:22:41;101640.37;;;-3.89;100.00
73063;BME280;61230;46.328;19.972;2023-12-04T03:25:09;101649.84;;;-3.94;100.00
73063;BME280;61230;46.328;19.972;2023-12-04T03:27:36;101649.81;;;-3.89;100.00
73063;BME280;61230;46.328;19.972;2023-12-04T03:30:05;101648.00;;;-3.83;100.00
73063;BME280;61230;46.328;19.972;2023-12-04T03:32:32;101591.03;;;-4.15;100.00
73063;BME280;61230;46.328;19.972;2023-12-04T03:35:01;101647.25;;;-3.91;100.00
73063;BME280;61230;46.328;19.972;2023-12-04T03:37:28;101641.25;;;-3.90;100.00
73063;BME280;61230;46.328;19.972;2023-12-04T03:39:56;101638.81;;;-4.00;100.00
73063;BME280;61230;46.328;19.972;2023-12-04T03:42:24;101642.22;;;-3.98;100.00
73063;BME280;61230;46.328;19.972;2023-12-04T03:44:52;101633.66;;;-3.97;100.00
73063;BME280;61230;46.328;19.972;2023-12-04T03:47:19;101599.59;;;-4.16;100.00
73063;BME280;61230;46.328;19.972;2023-12-04T03:49:47;101648.13;;;-3.92;100.00
73063;BME280;61230;46.328;19.972;2023-12-04T03:52:15;101585.19;;;-4.28;100.00
73063;BME280;61230;46.328;19.972;2023-12-04T03:54:42;101643.00;;;-3.92;100.00
73063;BME280;61230;46.328;19.972;2023-12-04T03:57:12;101645.53;;;-3.90;100.00
73063;BME280;61230;46.328;19.972;2023-12-04T03:59:39;101637.81;;;-3.90;100.00
73063;BME280;61230;46.328;19.972;2023-12-04T04:02:07;101635.25;;;-3.90;100.00
73063;BME280;61230;46.328;19.972;2023-12-04T04:04:35;101636.94;;;-3.88;100.00
73063;BME280;61230;46.328;19.972;2023-12-04T04:07:02;101628.44;;;-3.94;100.00
73063;BME280;61230;46.328;19.972;2023-12-04T04:09:30;101631.00;;;-3.93;100.00
73063;BME280;61230;46.328;19.972;2023-12-04T04:11:58;101629.38;;;-3.98;100.00
73063;BME280;61230;46.328;19.972;2023-12-04T04:14:26;101631.06;;;-3.97;100.00
73063;BME280;61230;46.328;19.972;2023-12-04T04:16:53;101625.03;;;-3.96;100.00
73063;BME280;61230;46.328;19.972;2023-12-04T04:19:21;101633.53;;;-3.91;100.00
73063;BME280;61230;46.328;19.972;2023-12-04T04:21:49;101634.47;;;-3.95;100.00
73063;BME280;61230;46.328;19.972;2023-12-04T04:24:17;101640.50;;;-3.99;100.00
73063;BME280;61230;46.328;19.972;2023-12-04T04:26:44;101636.22;;;-3.99;100.00
73063;BME280;61230;46.328;19.972;2023-12-04T04:29:12;101640.59;;;-4.07;100.00
73063;BME280;61230;46.328;19.972;2023-12-04T04:31:40;101552.16;;;-4.55;100.00
73063;BME280;61230;46.328;19.972;2023-12-04T04:34:08;101650.78;;;-3.99;100.00
73063;BME280;61230;46.328;19.972;2023-12-04T04:36:35;101645.62;;;-3.98;100.00
73063;BME280;61230;46.328;19.972;2023-12-04T04:39:03;101639.56;;;-3.94;100.00
73063;BME280;61230;46.328;19.972;2023-12-04T04:41:32;101643.78;;;-3.88;100.00
73063;BME280;61230;46.328;19.972;2023-12-04T04:43:59;101641.25;;;-3.91;100.00
73063;BME280;61230;46.328;19.972;2023-12-04T04:46:27;101643.06;;;-3.99;100.00
73063;BME280;61230;46.328;19.972;2023-12-04T04:48:56;101643.13;;;-4.04;100.00
73063;BME280;61230;46.328;19.972;2023-12-04T04:51:24;101636.72;;;-4.41;100.00
73063;BME280;61230;46.328;19.972;2023-12-04T04:53:51;101636.78;;;-4.46;100.00
73063;BME280;61230;46.328;19.972;2023-12-04T04:56:19;101640.88;;;-4.31;100.00
73063;BME280;61230;46.328;19.972;2023-12-04T04:58:47;101637.50;;;-4.33;100.00
73063;BME280;61230;46.328;19.972;2023-12-04T05:01:20;101635.84;;;-4.39;100.00
73063;BME280;61230;46.328;19.972;2023-12-04T05:03:47;101639.16;;;-4.29;100.00
73063;BME280;61230;46.328;19.972;2023-12-04T05:06:15;101642.56;;;-4.26;100.00
73063;BME280;61230;46.328;19.972;2023-12-04T05:08:43;101648.53;;;-4.24;100.00
73063;BME280;61230;46.328;19.972;2023-12-04T05:11:14;101589.84;;;-4.57;100.00
73063;BME280;61230;46.328;19.972;2023-12-04T05:13:42;101635.78;;;-4.33;100.00
73063;BME280;61230;46.328;19.972;2023-12-04T05:16:10;101636.59;;;-4.31;100.00
73063;BME280;61230;46.328;19.972;2023-12-04T05:18:38;101637.50;;;-4.33;100.00
73063;BME280;61230;46.328;19.972;2023-12-04T05:21:10;101584.88;;;-4.72;100.00
73063;BME280;61230;46.328;19.972;2023-12-04T05:23:38;101634.13;;;-4.38;100.00
73063;BME280;61230;46.328;19.972;2023-12-04T05:26:06;101646.09;;;-4.34;100.00
73063;BME280;61230;46.328;19.972;2023-12-04T05:28:34;101646.03;;;-4.31;100.00
73063;BME280;61230;46.328;19.972;2023-12-04T05:31:03;101641.81;;;-4.35;100.00
73063;BME280;61230;46.328;19.972;2023-12-04T05:33:30;101628.97;;;-4.37;100.00
73063;BME280;61230;46.328;19.972;2023-12-04T05:35:59;101646.06;;;-4.33;100.00
73063;BME280;61230;46.328;19.972;2023-12-04T05:38:27;101638.38;;;-4.36;100.00
73063;BME280;61230;46.328;19.972;2023-12-04T05:40:55;101583.97;;;-4.70;100.00
73063;BME280;61230;46.328;19.972;2023-12-04T05:43:23;101648.69;;;-4.37;100.00
73063;BME280;61230;46.328;19.972;2023-12-04T05:45:51;101653.72;;;-4.31;100.00
73063;BME280;61230;46.328;19.972;2023-12-04T05:48:19;101657.13;;;-4.28;100.00
73063;BME280;61230;46.328;19.972;2023-12-04T05:50:46;101662.25;;;-4.26;100.00
73063;BME280;61230;46.328;19.972;2023-12-04T05:53:14;101662.34;;;-4.37;100.00
73063;BME280;61230;46.328;19.972;2023-12-04T05:55:42;101604.59;;;-4.77;100.00
73063;BME280;61230;46.328;19.972;2023-12-04T05:58:09;101661.72;;;-4.57;100.00
73063;BME280;61230;46.328;19.972;2023-12-04T06:00:37;101655.72;;;-4.56;100.00
73063;BME280;61230;46.328;19.972;2023-12-04T06:03:05;101658.31;;;-4.57;100.00
73063;BME280;61230;46.328;19.972;2023-12-04T06:05:33;101656.56;;;-4.55;100.00
73063;BME280;61230;46.328;19.972;2023-12-04T06:08:01;101657.41;;;-4.52;100.00
73063;BME280;61230;46.328;19.972;2023-12-04T06:10:28;101663.25;;;-4.42;100.00
73063;BME280;61230;46.328;19.972;2023-12-04T06:12:56;101609.59;;;-4.65;100.00
73063;BME280;61230;46.328;19.972;2023-12-04T06:15:24;101659.69;;;-4.28;100.00
73063;BME280;61230;46.328;19.972;2023-12-04T06:17:52;101652.97;;;-4.38;100.00
73063;BME280;61230;46.328;19.972;2023-12-04T06:20:19;101655.41;;;-4.26;100.00
73063;BME280;61230;46.328;19.972;2023-12-04T06:22:47;101663.16;;;-4.30;100.00
73063;BME280;61230;46.328;19.972;2023-12-04T06:25:15;101660.53;;;-4.26;100.00
73063;BME280;61230;46.328;19.972;2023-12-04T06:27:43;101662.22;;;-4.23;100.00
73063;BME280;61230;46.328;19.972;2023-12-04T06:30:11;101663.94;;;-4.24;100.00
73063;BME280;61230;46.328;19.972;2023-12-04T06:32:39;101660.66;;;-4.39;100.00
73063;BME280;61230;46.328;19.972;2023-12-04T06:35:08;101664.88;;;-4.34;100.00
73063;BME280;61230;46.328;19.972;2023-12-04T06:37:38;101663.87;;;-4.18;100.00
73063;BME280;61230;46.328;19.972;2023-12-04T06:40:07;101669.69;;;-4.03;100.00
73063;BME280;61230;46.328;19.972;2023-12-04T06:42:39;101672.22;;;-4.02;100.00
73063;BME280;61230;46.328;19.972;2023-12-04T06:45:07;101671.22;;;-3.90;100.00
73063;BME280;61230;46.328;19.972;2023-12-04T06:47:36;101669.41;;;-3.81;100.00
73063;BME280;61230;46.328;19.972;2023-12-04T06:50:04;101672.69;;;-3.71;100.00
73063;BME280;61230;46.328;19.972;2023-12-04T06:52:33;101679.50;;;-3.67;100.00
73063;BME280;61230;46.328;19.972;2023-12-04T06:55:02;101688.78;;;-3.57;100.00
73063;BME280;61230;46.328;19.972;2023-12-04T06:57:30;101645.25;;;-3.69;100.00
73063;BME280;61230;46.328;19.972;2023-12-04T06:59:57;101689.34;;;-3.35;100.00
73063;BME280;61230;46.328;19.972;2023-12-04T07:02:25;101680.69;;;-3.30;100.00
73063;BME280;61230;46.328;19.972;2023-12-04T07:04:53;101665.38;;;-3.40;100.00
73063;BME280;61230;46.328;19.972;2023-12-04T07:07:21;101692.56;;;-3.21;100.00
73063;BME280;61230;46.328;19.972;2023-12-04T07:09:49;101691.63;;;-3.16;100.00
73063;BME280;61230;46.328;19.972;2023-12-04T07:12:16;101693.16;;;-3.04;100.00
73063;BME280;61230;46.328;19.972;2023-12-04T07:14:45;101691.37;;;-3.01;100.00
73063;BME280;61230;46.328;19.972;2023-12-04T07:17:12;101692.13;;;-2.94;100.00
73063;BME280;61230;46.328;19.972;2023-12-04T07:19:41;101686.00;;;-2.85;100.00
73063;BME280;61230;46.328;19.972;2023-12-04T07:22:09;101693.63;;;-2.81;100.00
73063;BME280;61230;46.328;19.972;2023-12-04T07:24:37;101688.41;;;-2.78;100.00
73063;BME280;61230;46.328;19.972;2023-12-04T07:27:04;101690.00;;;-2.68;100.00
73063;BME280;61230;46.328;19.972;2023-12-04T07:29:33;101639.69;;;-2.88;100.00
73063;BME280;61230;46.328;19.972;2023-12-04T07:32:00;101688.81;;;-2.50;100.00
73063;BME280;61230;46.328;19.972;2023-12-04T07:34:28;101688.78;;;-2.47;100.00
73063;BME280;61230;46.328;19.972;2023-12-04T07:36:56;101679.06;;;-2.33;100.00
73063;BME280;61230;46.328;19.972;2023-12-04T07:39:24;101684.00;;;-2.24;100.00
73063;BME280;61230;46.328;19.972;2023-12-04T07:41:51;101684.81;;;-2.19;100.00
73063;BME280;61230;46.328;19.972;2023-12-04T07:44:20;101694.03;;;-2.09;100.00
73063;BME280;61230;46.328;19.972;2023-12-04T07:46:48;101677.59;;;-2.02;100.00
73063;BME280;61230;46.328;19.972;2023-12-04T07:49:16;101694.78;;;-2.04;100.00
73063;BME280;61230;46.328;19.972;2023-12-04T07:51:44;101690.13;;;-1.85;100.00
73063;BME280;61230;46.328;19.972;2023-12-04T07:54:12;101693.34;;;-1.74;100.00
73063;BME280;61230;46.328;19.972;2023-12-04T07:56:40;101694.03;;;-1.66;100.00
73063;BME280;61230;46.328;19.972;2023-12-04T07:59:08;101688.69;;;-1.58;100.00
73063;BME280;61230;46.328;19.972;2023-12-04T08:01:35;101686.66;;;-1.44;100.00
73063;BME280;61230;46.328;19.972;2023-12-04T08:04:06;101683.75;;;-1.29;100.00
73063;BME280;61230;46.328;19.972;2023-12-04T08:06:34;101691.28;;;-1.20;100.00
73063;BME280;61230;46.328;19.972;2023-12-04T08:09:02;101690.06;;;-1.05;100.00
73063;BME280;61230;46.328;19.972;2023-12-04T08:11:30;101643.16;;;-1.24;100.00
73063;BME280;61230;46.328;19.972;2023-12-04T08:13:57;101642.16;;;-1.17;100.00
73063;BME280;61230;46.328;19.972;2023-12-04T08:16:25;101683.38;;;-0.79;100.00
73063;BME280;61230;46.328;19.972;2023-12-04T08:18:55;101691.75;;;-0.69;100.00
73063;BME280;61230;46.328;19.972;2023-12-04T08:21:23;101694.19;;;-0.63;100.00
73063;BME280;61230;46.328;19.972;2023-12-04T08:23:52;101694.87;;;-0.57;100.00
73063;BME280;61230;46.328;19.972;2023-12-04T08:26:24;101708.22;;;-0.39;100.00
73063;BME280;61230;46.328;19.972;2023-12-04T08:28:52;101713.12;;;-0.29;100.00
73063;BME280;61230;46.328;19.972;2023-12-04T08:31:19;101720.81;;;-0.26;99.57
73063;BME280;61230;46.328;19.972;2023-12-04T08:33:47;101729.78;;;-0.08;98.28
73063;BME280;61230;46.328;19.972;2023-12-04T08:36:15;101712.66;;;-0.12;96.95
73063;BME280;61230;46.328;19.972;2023-12-04T08:38:43;101712.28;;;0.02;97.12
73063;BME280;61230;46.328;19.972;2023-12-04T08:41:11;101702.69;;;0.05;97.35
73063;BME280;61230;46.328;19.972;2023-12-04T08:43:38;101708.97;;;0.27;96.85
73063;BME280;61230;46.328;19.972;2023-12-04T08:46:06;101707.09;;;0.32;95.63
73063;BME280;61230;46.328;19.972;2023-12-04T08:48:35;101709.50;;;0.38;94.60
73063;BME280;61230;46.328;19.972;2023-12-04T08:51:03;101703.78;;;0.56;95.13
73063;BME280;61230;46.328;19.972;2023-12-04T08:53:31;101710.81;;;0.51;94.52
73063;BME280;61230;46.328;19.972;2023-12-04T08:55:58;101705.38;;;0.61;94.66
73063;BME280;61230;46.328;19.972;2023-12-04T08:58:26;101698.97;;;0.72;91.77
73063;BME280;61230;46.328;19.972;2023-12-04T09:00:54;101699.75;;;0.74;90.40
73063;BME280;61230;46.328;19.972;2023-12-04T09:03:22;101695.09;;;0.85;92.51
73063;BME280;61230;46.328;19.972;2023-12-04T09:05:58;101706.22;;;0.89;93.48
73063;BME280;61230;46.328;19.972;2023-12-04T09:08:27;101707.66;;;0.99;90.22
73063;BME280;61230;46.328;19.972;2023-12-04T09:11:05;101709.91;;;1.08;88.91
73063;BME280;61230;46.328;19.972;2023-12-04T09:13:36;101701.75;;;1.20;91.17
73063;BME280;61230;46.328;19.972;2023-12-04T09:16:05;101695.50;;;1.27;89.28
73063;BME280;61230;46.328;19.972;2023-12-04T09:18:33;101702.97;;;1.36;88.42
73063;BME280;61230;46.328;19.972;2023-12-04T09:21:02;101699.31;;;1.42;85.44
73063;BME280;61230;46.328;19.972;2023-12-04T09:23:29;101702.69;;;1.44;83.75
73063;BME280;61230;46.328;19.972;2023-12-04T09:25:58;101700.75;;;1.50;84.46
73063;BME280;61230;46.328;19.972;2023-12-04T09:28:26;101700.59;;;1.55;84.57
73063;BME280;61230;46.328;19.972;2023-12-04T09:30:53;101697.91;;;1.58;86.29
73063;BME280;61230;46.328;19.972;2023-12-04T09:33:21;101691.66;;;1.63;83.16
73063;BME280;61230;46.328;19.972;2023-12-04T09:35:49;101642.38;;;1.39;81.60
73063;BME280;61230;46.328;19.972;2023-12-04T09:38:17;101688.75;;;1.72;81.61
73063;BME280;61230;46.328;19.972;2023-12-04T09:40:44;101678.16;;;1.79;83.64
73063;BME280;61230;46.328;19.972;2023-12-04T09:43:13;101670.03;;;1.88;83.84
73063;BME280;61230;46.328;19.972;2023-12-04T09:45:41;101676.12;;;1.87;81.22
73063;BME280;61230;46.328;19.972;2023-12-04T09:48:09;101667.00;;;2.00;81.99
73063;BME280;61230;46.328;19.972;2023-12-04T09:50:38;101666.03;;;2.02;81.01
73063;BME280;61230;46.328;19.972;2023-12-04T09:53:10;101662.47;;;2.05;81.29
73063;BME280;61230;46.328;19.972;2023-12-04T09:55:40;101667.41;;;2.12;79.54
73063;BME280;61230;46.328;19.972;2023-12-04T09:58:08;101668.81;;;2.21;78.75
73063;BME280;61230;46.328;19.972;2023-12-04T10:00:38;101664.59;;;2.18;78.64
73063;BME280;61230;46.328;19.972;2023-12-04T10:03:07;101649.59;;;2.25;78.19
73063;BME280;61230;46.328;19.972;2023-12-04T10:05:35;101651.41;;;2.23;78.04
73063;BME280;61230;46.328;19.972;2023-12-04T10:08:03;101653.56;;;2.35;77.93
73063;BME280;61230;46.328;19.972;2023-12-04T10:10:31;101649.50;;;2.28;75.21
73063;BME280;61230;46.328;19.972;2023-12-04T10:13:01;101641.91;;;2.22;76.17
73063;BME280;61230;46.328;19.972;2023-12-04T10:15:30;101597.66;;;2.03;75.95
73063;BME280;61230;46.328;19.972;2023-12-04T10:17:58;101637.78;;;2.18;75.51
73063;BME280;61230;46.328;19.972;2023-12-04T10:20:27;101637.59;;;2.22;78.94
73063;BME280;61230;46.328;19.972;2023-12-04T10:22:57;101640.91;;;2.26;76.16
73063;BME280;61230;46.328;19.972;2023-12-04T10:25:27;101629.34;;;2.35;77.27
73063;BME280;61230;46.328;19.972;2023-12-04T10:28:11;101585.03;;;2.16;76.96
73063;BME280;61230;46.328;19.972;2023-12-04T10:30:39;101626.16;;;2.50;77.57
73063;BME280;61230;46.328;19.972;2023-12-04T10:33:08;101624.56;;;2.46;76.13
73063;BME280;61230;46.328;19.972;2023-12-04T10:35:36;101618.88;;;2.36;75.51
73063;BME280;61230;46.328;19.972;2023-12-04T10:38:06;101616.66;;;2.49;76.37
73063;BME280;61230;46.328;19.972;2023-12-04T10:40:35;101621.75;;;2.52;76.35
73063;BME280;61230;46.328;19.972;2023-12-04T10:43:16;101616.97;;;2.41;75.33
73063;BME280;61230;46.328;19.972;2023-12-04T10:45:45;101613.22;;;2.48;75.80
73063;BME280;61230;46.328;19.972;2023-12-04T10:48:15;101613.00;;;2.53;76.93
73063;BME280;61230;46.328;19.972;2023-12-04T10:50:45;101604.69;;;2.66;77.29
73063;BME280;61230;46.328;19.972;2023-12-04T10:53:16;101604.22;;;2.57;77.48
73063;BME280;61230;46.328;19.972;2023-12-04T10:55:44;101602.34;;;2.60;76.50
73063;BME280;61230;46.328;19.972;2023-12-04T10:58:14;101597.44;;;2.53;75.84
73063;BME280;61230;46.328;19.972;2023-12-04T11:00:45;101583.22;;;2.61;75.23
73063;BME280;61230;46.328;19.972;2023-12-04T11:03:19;101582.09;;;2.68;76.78
73063;BME280;61230;46.328;19.972;2023-12-04T11:05:53;101580.09;;;2.75;75.64
73063;BME280;61230;46.328;19.972;2023-12-04T11:08:23;101582.16;;;2.87;76.10
73063;BME280;61230;46.328;19.972;2023-12-04T11:11:04;101577.94;;;2.84;74.54
73063;BME280;61230;46.328;19.972;2023-12-04T11:13:40;101572.50;;;2.90;75.06
73063;BME280;61230;46.328;19.972;2023-12-04T11:16:33;101570.81;;;2.89;74.91
73063;BME280;61230;46.328;19.972;2023-12-04T11:19:20;101570.62;;;2.94;74.06
73063;BME280;61230;46.328;19.972;2023-12-04T11:21:51;101559.16;;;2.98;74.33
73063;BME280;61230;46.328;19.972;2023-12-04T11:24:21;101538.97;;;2.84;74.18
73063;BME280;61230;46.328;19.972;2023-12-04T11:26:49;101571.59;;;2.92;73.39
73063;BME280;61230;46.328;19.972;2023-12-04T11:29:18;101554.25;;;2.92;73.50
73063;BME280;61230;46.328;19.972;2023-12-04T11:31:47;101555.22;;;2.89;73.08
73063;BME280;61230;46.328;19.972;2023-12-04T11:34:14;101549.38;;;3.05;76.42
73063;BME280;61230;46.328;19.972;2023-12-04T11:36:43;101550.59;;;2.96;74.41
73063;BME280;61230;46.328;19.972;2023-12-04T11:39:12;101504.50;;;2.81;76.34
73063;BME280;61230;46.328;19.972;2023-12-04T11:41:43;101536.03;;;3.12;73.37
73063;BME280;61230;46.328;19.972;2023-12-04T11:44:12;101526.47;;;3.13;72.04
73063;BME280;61230;46.328;19.972;2023-12-04T11:47:06;101532.03;;;3.05;73.10
73063;BME280;61230;46.328;19.972;2023-12-04T11:49:34;101527.06;;;3.19;75.17
73063;BME280;61230;46.328;19.972;2023-12-04T11:52:03;101482.25;;;2.94;73.76
73063;BME280;61230;46.328;19.972;2023-12-04T11:54:59;101521.37;;;3.11;73.94
73063;BME280;61230;46.328;19.972;2023-12-04T11:57:32;101524.38;;;3.21;73.51
73063;BME280;61230;46.328;19.972;2023-12-04T12:05:37;101507.25;;;3.17;74.27
73063;BME280;61230;46.328;19.972;2023-12-04T12:08:09;101502.81;;;3.19;74.15
73063;BME280;61230;46.328;19.972;2023-12-04T12:10:37;101501.91;;;3.20;74.66
73063;BME280;61230;46.328;19.972;2023-12-04T12:13:05;101496.53;;;3.04;75.44
73063;BME280;61230;46.328;19.972;2023-12-04T12:15:33;101510.31;;;3.26;75.03
73063;BME280;61230;46.328;19.972;2023-12-04T12:18:01;101509.72;;;3.00;75.26
73063;BME280;61230;46.328;19.972;2023-12-04T12:20:29;101495.16;;;3.16;74.95
73063;BME280;61230;46.328;19.972;2023-12-04T12:22:57;101501.41;;;3.12;75.31
73063;BME280;61230;46.328;19.972;2023-12-04T12:25:25;101489.22;;;3.12;74.86
73063;BME280;61230;46.328;19.972;2023-12-04T12:27:54;101483.97;;;3.14;75.79
73063;BME280;61230;46.328;19.972;2023-12-04T12:30:22;101439.31;;;2.85;75.82
73063;BME280;61230;46.328;19.972;2023-12-04T12:32:50;101478.66;;;2.97;76.84
73063;BME280;61230;46.328;19.972;2023-12-04T12:35:19;101483.97;;;3.14;78.49
73063;BME280;61230;46.328;19.972;2023-12-04T12:37:47;101475.72;;;3.04;76.59
73063;BME280;61230;46.328;19.972;2023-12-04T12:40:15;101429.81;;;2.84;76.21
73063;BME280;61230;46.328;19.972;2023-12-04T12:42:43;101475.16;;;3.18;76.01
73063;BME280;61230;46.328;19.972;2023-12-04T12:45:12;101462.69;;;3.06;74.97
73063;BME280;61230;46.328;19.972;2023-12-04T12:47:42;101455.72;;;3.06;76.38